Matagorda, Texas
Current Conditions -  °F | °C
As of 12:30 PM on Thursday 30 Oct 2014 (Local Time) from KPSX Reporting Station
Broken Clouds Broken Clouds  
Wind Chill: 77°   Ceiling: 2700
Heat Index: 79°   Visibility: 10mi
Dew Point: 66°   Wind: 7mph
Humidity: 69%   Direction: 60°ENE
Pressure: 30.11"   Gusts: NA
Location:  28.69°N, 95.97°W
Report Text: KPSX 301730Z AUTO 06006KT 10SM BKN027 25/19 A3011 RMK AO2 T02500189
Loading
Personal Weather Stations






























Interactive Weather Map
Tropical Storm Tracking
New forecast layout! Learn more

10-Day Weather Forecast

Advertisements
Track Severe Weather on mobile